sensor_id;sensor_type;location;lat;lon;timestamp;P1;durP1;ratioP1;P2;durP2;ratioP2
42632;SDS011;28261;53.304;-6.284;2023-11-19T00:01:15;22.77;;;2.97;;
42632;SDS011;28261;53.304;-6.284;2023-11-19T00:03:19;20.70;;;2.10;;
42632;SDS011;28261;53.304;-6.284;2023-11-19T00:05:23;14.35;;;2.47;;
42632;SDS011;28261;53.304;-6.284;2023-11-19T00:07:26;15.55;;;2.20;;
42632;SDS011;28261;53.304;-6.284;2023-11-19T00:09:36;14.80;;;2.22;;
42632;SDS011;28261;53.304;-6.284;2023-11-19T00:13:55;20.45;;;2.58;;
42632;SDS011;28261;53.304;-6.284;2023-11-19T00:15:58;14.45;;;2.25;;
42632;SDS011;28261;53.304;-6.284;2023-11-19T00:18:02;13.85;;;2.15;;
42632;SDS011;28261;53.304;-6.284;2023-11-19T00:20:08;13.68;;;2.50;;
42632;SDS011;28261;53.304;-6.284;2023-11-19T00:22:11;16.02;;;2.78;;
42632;SDS011;28261;53.304;-6.284;2023-11-19T00:24:15;12.77;;;2.05;;
42632;SDS011;28261;53.304;-6.284;2023-11-19T00:26:19;16.83;;;2.50;;
42632;SDS011;28261;53.304;-6.284;2023-11-19T00:28:28;12.75;;;1.67;;
42632;SDS011;28261;53.304;-6.284;2023-11-19T00:30:32;17.58;;;2.67;;
42632;SDS011;28261;53.304;-6.284;2023-11-19T00:32:36;16.30;;;2.88;;
42632;SDS011;28261;53.304;-6.284;2023-11-19T00:34:43;17.38;;;2.75;;
42632;SDS011;28261;53.304;-6.284;2023-11-19T00:36:47;17.08;;;2.67;;
42632;SDS011;28261;53.304;-6.284;2023-11-19T00:38:51;16.67;;;2.50;;
42632;SDS011;28261;53.304;-6.284;2023-11-19T00:40:55;17.08;;;2.00;;
42632;SDS011;28261;53.304;-6.284;2023-11-19T00:42:59;14.45;;;2.20;;
42632;SDS011;28261;53.304;-6.284;2023-11-19T00:45:04;22.73;;;3.22;;
42632;SDS011;28261;53.304;-6.284;2023-11-19T00:47:13;19.00;;;2.38;;
42632;SDS011;28261;53.304;-6.284;2023-11-19T00:49:15;14.65;;;2.97;;
42632;SDS011;28261;53.304;-6.284;2023-11-19T00:51:19;18.98;;;3.38;;
42632;SDS011;28261;53.304;-6.284;2023-11-19T00:53:23;19.27;;;2.55;;
42632;SDS011;28261;53.304;-6.284;2023-11-19T00:55:26;15.95;;;2.67;;
42632;SDS011;28261;53.304;-6.284;2023-11-19T00:57:29;12.50;;;2.08;;
42632;SDS011;28261;53.304;-6.284;2023-11-19T00:59:34;13.38;;;2.72;;
42632;SDS011;28261;53.304;-6.284;2023-11-19T01:01:39;11.77;;;1.77;;
42632;SDS011;28261;53.304;-6.284;2023-11-19T01:03:43;11.95;;;1.90;;
42632;SDS011;28261;53.304;-6.284;2023-11-19T01:05:47;13.35;;;1.70;;
42632;SDS011;28261;53.304;-6.284;2023-11-19T01:09:57;12.52;;;1.90;;
42632;SDS011;28261;53.304;-6.284;2023-11-19T01:12:01;9.35;;;1.73;;
42632;SDS011;28261;53.304;-6.284;2023-11-19T01:14:06;13.82;;;1.85;;
42632;SDS011;28261;53.304;-6.284;2023-11-19T01:16:10;9.60;;;2.38;;
42632;SDS011;28261;53.304;-6.284;2023-11-19T01:20:20;11.25;;;1.75;;
42632;SDS011;28261;53.304;-6.284;2023-11-19T01:22:24;11.02;;;1.85;;
42632;SDS011;28261;53.304;-6.284;2023-11-19T01:24:27;12.38;;;1.77;;
42632;SDS011;28261;53.304;-6.284;2023-11-19T01:26:33;14.80;;;2.05;;
42632;SDS011;28261;53.304;-6.284;2023-11-19T01:28:36;11.82;;;1.90;;
42632;SDS011;28261;53.304;-6.284;2023-11-19T01:30:53;11.55;;;1.30;;
42632;SDS011;28261;53.304;-6.284;2023-11-19T01:32:56;8.00;;;1.50;;
42632;SDS011;28261;53.304;-6.284;2023-11-19T01:35:02;12.85;;;1.63;;
42632;SDS011;28261;53.304;-6.284;2023-11-19T01:37:05;9.82;;;1.75;;
42632;SDS011;28261;53.304;-6.284;2023-11-19T01:39:10;13.60;;;1.83;;
42632;SDS011;28261;53.304;-6.284;2023-11-19T01:41:15;12.27;;;1.70;;
42632;SDS011;28261;53.304;-6.284;2023-11-19T01:43:31;10.15;;;1.45;;
42632;SDS011;28261;53.304;-6.284;2023-11-19T01:45:36;13.55;;;2.03;;
42632;SDS011;28261;53.304;-6.284;2023-11-19T01:47:42;10.82;;;1.42;;
42632;SDS011;28261;53.304;-6.284;2023-11-19T01:49:45;9.27;;;1.60;;
42632;SDS011;28261;53.304;-6.284;2023-11-19T01:51:51;14.77;;;2.22;;
42632;SDS011;28261;53.304;-6.284;2023-11-19T01:53:55;9.65;;;2.10;;
42632;SDS011;28261;53.304;-6.284;2023-11-19T01:56:00;11.48;;;2.17;;
42632;SDS011;28261;53.304;-6.284;2023-11-19T01:58:05;10.00;;;1.88;;
42632;SDS011;28261;53.304;-6.284;2023-11-19T02:00:11;6.07;;;1.38;;
42632;SDS011;28261;53.304;-6.284;2023-11-19T02:02:18;8.40;;;1.67;;
42632;SDS011;28261;53.304;-6.284;2023-11-19T02:04:23;12.20;;;2.30;;
42632;SDS011;28261;53.304;-6.284;2023-11-19T02:06:27;10.88;;;1.80;;
42632;SDS011;28261;53.304;-6.284;2023-11-19T02:08:33;10.25;;;1.77;;
42632;SDS011;28261;53.304;-6.284;2023-11-19T02:10:37;9.40;;;2.15;;
42632;SDS011;28261;53.304;-6.284;2023-11-19T02:12:41;14.52;;;1.60;;
42632;SDS011;28261;53.304;-6.284;2023-11-19T02:14:46;10.15;;;1.85;;
42632;SDS011;28261;53.304;-6.284;2023-11-19T02:16:50;11.52;;;1.88;;
42632;SDS011;28261;53.304;-6.284;2023-11-19T02:18:52;10.90;;;1.50;;
42632;SDS011;28261;53.304;-6.284;2023-11-19T02:20:56;12.82;;;1.75;;
42632;SDS011;28261;53.304;-6.284;2023-11-19T02:23:01;6.70;;;1.20;;
42632;SDS011;28261;53.304;-6.284;2023-11-19T02:25:06;8.52;;;1.50;;
42632;SDS011;28261;53.304;-6.284;2023-11-19T02:27:16;10.38;;;1.67;;
42632;SDS011;28261;53.304;-6.284;2023-11-19T02:29:27;7.55;;;1.48;;
42632;SDS011;28261;53.304;-6.284;2023-11-19T02:31:31;12.25;;;1.90;;
42632;SDS011;28261;53.304;-6.284;2023-11-19T02:33:37;6.30;;;1.55;;
42632;SDS011;28261;53.304;-6.284;2023-11-19T02:35:41;8.38;;;1.48;;
42632;SDS011;28261;53.304;-6.284;2023-11-19T02:37:44;9.80;;;1.20;;
42632;SDS011;28261;53.304;-6.284;2023-11-19T02:39:48;10.00;;;1.20;;
42632;SDS011;28261;53.304;-6.284;2023-11-19T02:41:51;15.45;;;1.77;;
42632;SDS011;28261;53.304;-6.284;2023-11-19T02:43:55;9.85;;;1.20;;
42632;SDS011;28261;53.304;-6.284;2023-11-19T02:46:02;9.98;;;1.77;;
42632;SDS011;28261;53.304;-6.284;2023-11-19T02:48:11;10.63;;;1.67;;
42632;SDS011;28261;53.304;-6.284;2023-11-19T02:50:14;16.23;;;2.05;;
42632;SDS011;28261;53.304;-6.284;2023-11-19T02:52:18;13.73;;;2.03;;
42632;SDS011;28261;53.304;-6.284;2023-11-19T02:54:21;13.00;;;1.80;;
42632;SDS011;28261;53.304;-6.284;2023-11-19T02:56:29;11.60;;;2.72;;
42632;SDS011;28261;53.304;-6.284;2023-11-19T02:58:36;12.10;;;1.85;;
42632;SDS011;28261;53.304;-6.284;2023-11-19T03:00:41;12.73;;;1.48;;
42632;SDS011;28261;53.304;-6.284;2023-11-19T03:02:55;14.05;;;1.73;;
42632;SDS011;28261;53.304;-6.284;2023-11-19T03:05:02;8.45;;;1.58;;
42632;SDS011;28261;53.304;-6.284;2023-11-19T03:07:06;10.88;;;1.42;;
42632;SDS011;28261;53.304;-6.284;2023-11-19T03:09:10;9.68;;;1.48;;
42632;SDS011;28261;53.304;-6.284;2023-11-19T03:11:14;10.25;;;1.35;;
42632;SDS011;28261;53.304;-6.284;2023-11-19T03:13:18;11.30;;;1.85;;
42632;SDS011;28261;53.304;-6.284;2023-11-19T03:15:22;9.13;;;1.63;;
42632;SDS011;28261;53.304;-6.284;2023-11-19T03:17:26;11.40;;;1.20;;
42632;SDS011;28261;53.304;-6.284;2023-11-19T03:19:30;11.13;;;1.92;;
42632;SDS011;28261;53.304;-6.284;2023-11-19T03:21:34;11.63;;;1.30;;
42632;SDS011;28261;53.304;-6.284;2023-11-19T03:23:38;8.50;;;1.63;;
42632;SDS011;28261;53.304;-6.284;2023-11-19T03:25:43;13.27;;;1.40;;
42632;SDS011;28261;53.304;-6.284;2023-11-19T03:27:47;14.43;;;1.95;;
42632;SDS011;28261;53.304;-6.284;2023-11-19T03:29:50;8.43;;;1.13;;
42632;SDS011;28261;53.304;-6.284;2023-11-19T03:31:54;11.25;;;1.73;;
42632;SDS011;28261;53.304;-6.284;2023-11-19T03:33:58;9.63;;;1.42;;
42632;SDS011;28261;53.304;-6.284;2023-11-19T03:36:03;11.23;;;1.90;;
42632;SDS011;28261;53.304;-6.284;2023-11-19T03:38:08;6.93;;;1.08;;
42632;SDS011;28261;53.304;-6.284;2023-11-19T03:40:11;9.52;;;1.23;;
42632;SDS011;28261;53.304;-6.284;2023-11-19T03:44:18;12.05;;;1.35;;
42632;SDS011;28261;53.304;-6.284;2023-11-19T03:46:22;11.88;;;1.42;;
42632;SDS011;28261;53.304;-6.284;2023-11-19T03:48:26;9.52;;;1.45;;
42632;SDS011;28261;53.304;-6.284;2023-11-19T03:50:30;7.45;;;1.15;;
42632;SDS011;28261;53.304;-6.284;2023-11-19T03:52:35;5.97;;;1.42;;
42632;SDS011;28261;53.304;-6.284;2023-11-19T03:54:42;13.20;;;1.60;;
42632;SDS011;28261;53.304;-6.284;2023-11-19T03:56:47;6.07;;;1.20;;
42632;SDS011;28261;53.304;-6.284;2023-11-19T03:58:51;9.02;;;1.65;;
42632;SDS011;28261;53.304;-6.284;2023-11-19T04:00:54;10.25;;;2.17;;
42632;SDS011;28261;53.304;-6.284;2023-11-19T04:02:57;7.38;;;1.13;;
42632;SDS011;28261;53.304;-6.284;2023-11-19T04:05:02;7.93;;;1.17;;
42632;SDS011;28261;53.304;-6.284;2023-11-19T04:07:06;9.55;;;1.90;;
42632;SDS011;28261;53.304;-6.284;2023-11-19T04:09:12;11.05;;;1.27;;
42632;SDS011;28261;53.304;-6.284;2023-11-19T04:11:16;10.23;;;1.60;;
42632;SDS011;28261;53.304;-6.284;2023-11-19T04:13:20;7.13;;;1.02;;
42632;SDS011;28261;53.304;-6.284;2023-11-19T04:15:24;6.88;;;1.27;;
42632;SDS011;28261;53.304;-6.284;2023-11-19T04:17:27;10.48;;;1.42;;
42632;SDS011;28261;53.304;-6.284;2023-11-19T04:19:31;8.93;;;1.35;;
42632;SDS011;28261;53.304;-6.284;2023-11-19T04:21:35;13.82;;;1.75;;
42632;SDS011;28261;53.304;-6.284;2023-11-19T04:23:39;9.27;;;1.35;;
42632;SDS011;28261;53.304;-6.284;2023-11-19T04:25:44;10.57;;;1.42;;
42632;SDS011;28261;53.304;-6.284;2023-11-19T04:27:49;14.52;;;1.55;;
42632;SDS011;28261;53.304;-6.284;2023-11-19T04:29:53;13.60;;;1.48;;
42632;SDS011;28261;53.304;-6.284;2023-11-19T04:31:58;8.70;;;1.40;;
42632;SDS011;28261;53.304;-6.284;2023-11-19T04:34:02;11.25;;;1.20;;
42632;SDS011;28261;53.304;-6.284;2023-11-19T04:36:06;10.70;;;1.35;;
42632;SDS011;28261;53.304;-6.284;2023-11-19T04:38:11;5.30;;;1.17;;
42632;SDS011;28261;53.304;-6.284;2023-11-19T04:40:14;9.10;;;1.70;;
42632;SDS011;28261;53.304;-6.284;2023-11-19T04:42:23;4.35;;;0.85;;
42632;SDS011;28261;53.304;-6.284;2023-11-19T04:44:27;6.07;;;0.90;;
42632;SDS011;28261;53.304;-6.284;2023-11-19T04:46:31;7.38;;;0.88;;
42632;SDS011;28261;53.304;-6.284;2023-11-19T04:48:34;10.27;;;1.30;;
42632;SDS011;28261;53.304;-6.284;2023-11-19T04:50:40;5.70;;;1.13;;
42632;SDS011;28261;53.304;-6.284;2023-11-19T04:52:44;10.43;;;1.58;;
42632;SDS011;28261;53.304;-6.284;2023-11-19T04:54:48;8.45;;;1.27;;
42632;SDS011;28261;53.304;-6.284;2023-11-19T04:56:51;6.35;;;1.05;;
42632;SDS011;28261;53.304;-6.284;2023-11-19T04:58:56;7.05;;;1.70;;
42632;SDS011;28261;53.304;-6.284;2023-11-19T05:01:00;9.07;;;1.40;;
42632;SDS011;28261;53.304;-6.284;2023-11-19T05:03:05;9.90;;;1.35;;
42632;SDS011;28261;53.304;-6.284;2023-11-19T05:05:10;7.85;;;1.17;;
42632;SDS011;28261;53.304;-6.284;2023-11-19T05:07:15;8.15;;;1.10;;
42632;SDS011;28261;53.304;-6.284;2023-11-19T05:09:19;7.60;;;0.90;;
42632;SDS011;28261;53.304;-6.284;2023-11-19T05:11:23;6.55;;;1.02;;
42632;SDS011;28261;53.304;-6.284;2023-11-19T05:13:26;5.40;;;1.20;;
42632;SDS011;28261;53.304;-6.284;2023-11-19T05:15:31;8.55;;;1.05;;
42632;SDS011;28261;53.304;-6.284;2023-11-19T05:17:35;6.75;;;1.23;;
42632;SDS011;28261;53.304;-6.284;2023-11-19T05:19:40;7.35;;;1.38;;
42632;SDS011;28261;53.304;-6.284;2023-11-19T05:21:43;8.23;;;1.00;;
42632;SDS011;28261;53.304;-6.284;2023-11-19T05:23:47;5.75;;;1.13;;
42632;SDS011;28261;53.304;-6.284;2023-11-19T05:25:51;5.70;;;0.95;;
42632;SDS011;28261;53.304;-6.284;2023-11-19T05:27:55;14.38;;;2.75;;
42632;SDS011;28261;53.304;-6.284;2023-11-19T05:29:59;8.15;;;1.05;;
42632;SDS011;28261;53.304;-6.284;2023-11-19T05:32:04;3.72;;;0.73;;
42632;SDS011;28261;53.304;-6.284;2023-11-19T05:34:07;7.25;;;1.00;;
42632;SDS011;28261;53.304;-6.284;2023-11-19T05:36:11;7.78;;;1.05;;
42632;SDS011;28261;53.304;-6.284;2023-11-19T05:38:15;7.13;;;1.10;;
42632;SDS011;28261;53.304;-6.284;2023-11-19T05:40:19;8.70;;;1.10;;
42632;SDS011;28261;53.304;-6.284;2023-11-19T05:42:23;7.05;;;0.95;;
42632;SDS011;28261;53.304;-6.284;2023-11-19T05:44:27;6.00;;;1.25;;
42632;SDS011;28261;53.304;-6.284;2023-11-19T05:46:30;7.28;;;0.65;;
42632;SDS011;28261;53.304;-6.284;2023-11-19T05:48:36;5.40;;;0.82;;
42632;SDS011;28261;53.304;-6.284;2023-11-19T05:50:40;2.58;;;0.68;;
42632;SDS011;28261;53.304;-6.284;2023-11-19T05:52:44;6.65;;;0.93;;
42632;SDS011;28261;53.304;-6.284;2023-11-19T05:54:47;5.18;;;0.77;;
42632;SDS011;28261;53.304;-6.284;2023-11-19T05:56:53;7.72;;;1.33;;
42632;SDS011;28261;53.304;-6.284;2023-11-19T05:58:57;3.72;;;0.60;;
42632;SDS011;28261;53.304;-6.284;2023-11-19T06:01:02;4.50;;;0.50;;
42632;SDS011;28261;53.304;-6.284;2023-11-19T06:03:07;3.97;;;1.10;;
42632;SDS011;28261;53.304;-6.284;2023-11-19T06:05:12;6.13;;;0.60;;
42632;SDS011;28261;53.304;-6.284;2023-11-19T06:07:16;2.17;;;0.52;;
42632;SDS011;28261;53.304;-6.284;2023-11-19T06:09:19;3.00;;;0.68;;
42632;SDS011;28261;53.304;-6.284;2023-11-19T06:13:28;2.42;;;1.02;;
42632;SDS011;28261;53.304;-6.284;2023-11-19T06:15:33;5.15;;;0.77;;
42632;SDS011;28261;53.304;-6.284;2023-11-19T06:17:37;3.08;;;0.70;;
42632;SDS011;28261;53.304;-6.284;2023-11-19T06:19:40;7.25;;;1.10;;
42632;SDS011;28261;53.304;-6.284;2023-11-19T06:21:46;4.85;;;0.80;;
42632;SDS011;28261;53.304;-6.284;2023-11-19T06:23:49;2.05;;;0.63;;
42632;SDS011;28261;53.304;-6.284;2023-11-19T06:25:54;1.33;;;0.52;;
42632;SDS011;28261;53.304;-6.284;2023-11-19T06:27:56;2.58;;;0.70;;
42632;SDS011;28261;53.304;-6.284;2023-11-19T06:30:01;7.47;;;0.80;;
42632;SDS011;28261;53.304;-6.284;2023-11-19T06:32:05;3.83;;;0.60;;
42632;SDS011;28261;53.304;-6.284;2023-11-19T06:34:12;1.55;;;0.52;;
42632;SDS011;28261;53.304;-6.284;2023-11-19T06:36:16;1.27;;;0.22;;
42632;SDS011;28261;53.304;-6.284;2023-11-19T06:38:21;3.78;;;0.70;;
42632;SDS011;28261;53.304;-6.284;2023-11-19T06:44:32;3.90;;;0.77;;
42632;SDS011;28261;53.304;-6.284;2023-11-19T06:46:37;6.35;;;1.15;;
42632;SDS011;28261;53.304;-6.284;2023-11-19T06:48:41;7.03;;;1.08;;
42632;SDS011;28261;53.304;-6.284;2023-11-19T06:52:49;5.20;;;1.40;;
42632;SDS011;28261;53.304;-6.284;2023-11-19T06:54:54;5.50;;;0.90;;
42632;SDS011;28261;53.304;-6.284;2023-11-19T06:57:09;5.93;;;0.95;;
42632;SDS011;28261;53.304;-6.284;2023-11-19T06:59:13;7.80;;;1.67;;
42632;SDS011;28261;53.304;-6.284;2023-11-19T07:01:17;6.80;;;0.90;;
42632;SDS011;28261;53.304;-6.284;2023-11-19T07:03:21;1.73;;;0.52;;
42632;SDS011;28261;53.304;-6.284;2023-11-19T07:05:25;5.32;;;1.20;;
42632;SDS011;28261;53.304;-6.284;2023-11-19T07:07:29;4.40;;;0.77;;
42632;SDS011;28261;53.304;-6.284;2023-11-19T07:09:32;4.22;;;1.45;;
42632;SDS011;28261;53.304;-6.284;2023-11-19T07:11:37;3.53;;;0.63;;
42632;SDS011;28261;53.304;-6.284;2023-11-19T07:13:42;3.58;;;0.70;;
42632;SDS011;28261;53.304;-6.284;2023-11-19T07:15:48;3.80;;;0.57;;
42632;SDS011;28261;53.304;-6.284;2023-11-19T07:17:52;3.08;;;0.85;;
42632;SDS011;28261;53.304;-6.284;2023-11-19T07:19:59;3.47;;;0.60;;
42632;SDS011;28261;53.304;-6.284;2023-11-19T07:22:03;3.17;;;0.50;;
42632;SDS011;28261;53.304;-6.284;2023-11-19T07:26:11;2.25;;;0.40;;
42632;SDS011;28261;53.304;-6.284;2023-11-19T07:28:16;2.47;;;0.60;;
42632;SDS011;28261;53.304;-6.284;2023-11-19T07:30:20;3.70;;;0.98;;
42632;SDS011;28261;53.304;-6.284;2023-11-19T07:32:24;1.65;;;0.30;;
42632;SDS011;28261;53.304;-6.284;2023-11-19T07:34:28;3.15;;;0.63;;
42632;SDS011;28261;53.304;-6.284;2023-11-19T07:36:32;2.28;;;0.55;;
42632;SDS011;28261;53.304;-6.284;2023-11-19T07:38:35;2.55;;;0.47;;
42632;SDS011;28261;53.304;-6.284;2023-11-19T07:40:40;3.40;;;0.98;;
42632;SDS011;28261;53.304;-6.284;2023-11-19T07:42:57;2.92;;;0.50;;
42632;SDS011;28261;53.304;-6.284;2023-11-19T07:45:03;3.80;;;0.80;;
42632;SDS011;28261;53.304;-6.284;2023-11-19T07:47:08;3.45;;;0.50;;
42632;SDS011;28261;53.304;-6.284;2023-11-19T07:49:11;2.97;;;0.70;;
42632;SDS011;28261;53.304;-6.284;2023-11-19T07:51:15;3.92;;;0.55;;
42632;SDS011;28261;53.304;-6.284;2023-11-19T07:53:19;4.57;;;1.25;;
42632;SDS011;28261;53.304;-6.284;2023-11-19T07:55:23;2.80;;;0.52;;
42632;SDS011;28261;53.304;-6.284;2023-11-19T07:57:26;2.38;;;0.47;;
42632;SDS011;28261;53.304;-6.284;2023-11-19T07:59:32;0.63;;;0.22;;
42632;SDS011;28261;53.304;-6.284;2023-11-19T08:01:37;4.18;;;0.57;;
42632;SDS011;28261;53.304;-6.284;2023-11-19T08:03:41;1.65;;;0.68;;
42632;SDS011;28261;53.304;-6.284;2023-11-19T08:06:00;5.57;;;0.80;;
42632;SDS011;28261;53.304;-6.284;2023-11-19T08:08:04;2.40;;;0.80;;
42632;SDS011;28261;53.304;-6.284;2023-11-19T08:10:09;2.25;;;0.50;;
42632;SDS011;28261;53.304;-6.284;2023-11-19T08:12:12;2.70;;;0.55;;
42632;SDS011;28261;53.304;-6.284;2023-11-19T08:14:17;2.15;;;0.45;;
42632;SDS011;28261;53.304;-6.284;2023-11-19T08:16:20;1.63;;;0.43;;
42632;SDS011;28261;53.304;-6.284;2023-11-19T08:18:25;2.67;;;0.90;;
42632;SDS011;28261;53.304;-6.284;2023-11-19T08:20:30;2.38;;;0.35;;
42632;SDS011;28261;53.304;-6.284;2023-11-19T08:22:34;1.38;;;0.95;;
42632;SDS011;28261;53.304;-6.284;2023-11-19T08:24:37;0.98;;;0.25;;
42632;SDS011;28261;53.304;-6.284;2023-11-19T08:26:41;2.53;;;0.25;;
42632;SDS011;28261;53.304;-6.284;2023-11-19T08:28:45;1.00;;;0.22;;
42632;SDS011;28261;53.304;-6.284;2023-11-19T08:30:49;2.75;;;0.60;;
42632;SDS011;28261;53.304;-6.284;2023-11-19T08:32:53;2.95;;;0.45;;
42632;SDS011;28261;53.304;-6.284;2023-11-19T08:34:58;1.88;;;0.32;;
42632;SDS011;28261;53.304;-6.284;2023-11-19T08:37:03;3.22;;;0.50;;
42632;SDS011;28261;53.304;-6.284;2023-11-19T08:41:11;1.25;;;0.50;;
42632;SDS011;28261;53.304;-6.284;2023-11-19T08:43:16;4.93;;;1.67;;
42632;SDS011;28261;53.304;-6.284;2023-11-19T08:45:19;1.65;;;0.55;;
42632;SDS011;28261;53.304;-6.284;2023-11-19T08:47:23;0.45;;;0.40;;
42632;SDS011;28261;53.304;-6.284;2023-11-19T08:49:26;0.77;;;0.52;;
42632;SDS011;28261;53.304;-6.284;2023-11-19T08:51:32;1.33;;;0.47;;
42632;SDS011;28261;53.304;-6.284;2023-11-19T08:53:35;3.83;;;0.45;;
42632;SDS011;28261;53.304;-6.284;2023-11-19T08:55:39;3.03;;;0.68;;
42632;SDS011;28261;53.304;-6.284;2023-11-19T08:57:42;1.85;;;0.30;;
42632;SDS011;28261;53.304;-6.284;2023-11-19T08:59:47;1.75;;;0.40;;
42632;SDS011;28261;53.304;-6.284;2023-11-19T09:01:51;0.90;;;0.20;;
42632;SDS011;28261;53.304;-6.284;2023-11-19T09:03:55;1.10;;;0.35;;
42632;SDS011;28261;53.304;-6.284;2023-11-19T09:05:58;0.82;;;0.20;;
42632;SDS011;28261;53.304;-6.284;2023-11-19T09:08:05;1.80;;;0.50;;
42632;SDS011;28261;53.304;-6.284;2023-11-19T09:10:10;1.35;;;0.30;;
42632;SDS011;28261;53.304;-6.284;2023-11-19T09:12:15;0.75;;;0.20;;
42632;SDS011;28261;53.304;-6.284;2023-11-19T09:14:18;0.93;;;0.20;;
42632;SDS011;28261;53.304;-6.284;2023-11-19T09:16:26;0.40;;;0.30;;
42632;SDS011;28261;53.304;-6.284;2023-11-19T09:18:29;1.48;;;0.30;;
42632;SDS011;28261;53.304;-6.284;2023-11-19T09:20:32;1.20;;;0.20;;
42632;SDS011;28261;53.304;-6.284;2023-11-19T09:22:40;0.55;;;0.40;;
42632;SDS011;28261;53.304;-6.284;2023-11-19T09:24:46;0.30;;;0.15;;
42632;SDS011;28261;53.304;-6.284;2023-11-19T09:26:50;0.63;;;0.30;;
42632;SDS011;28261;53.304;-6.284;2023-11-19T09:28:53;0.73;;;0.20;;
42632;SDS011;28261;53.304;-6.284;2023-11-19T09:30:57;0.65;;;0.30;;
42632;SDS011;28261;53.304;-6.284;2023-11-19T09:33:01;1.23;;;0.30;;
42632;SDS011;28261;53.304;-6.284;2023-11-19T09:35:05;0.38;;;0.20;;
42632;SDS011;28261;53.304;-6.284;2023-11-19T09:37:09;0.40;;;0.32;;
42632;SDS011;28261;53.304;-6.284;2023-11-19T09:39:16;0.25;;;0.25;;
42632;SDS011;28261;53.304;-6.284;2023-11-19T09:41:21;0.40;;;0.20;;
42632;SDS011;28261;53.304;-6.284;2023-11-19T09:43:25;0.65;;;0.10;;
42632;SDS011;28261;53.304;-6.284;2023-11-19T09:45:31;0.28;;;0.10;;
42632;SDS011;28261;53.304;-6.284;2023-11-19T09:47:40;0.30;;;0.22;;
42632;SDS011;28261;53.304;-6.284;2023-11-19T09:49:47;1.08;;;0.38;;
42632;SDS011;28261;53.304;-6.284;2023-11-19T09:51:52;1.95;;;0.38;;
42632;SDS011;28261;53.304;-6.284;2023-11-19T09:53:56;0.60;;;0.40;;
42632;SDS011;28261;53.304;-6.284;2023-11-19T09:56:00;0.90;;;0.22;;
42632;SDS011;28261;53.304;-6.284;2023-11-19T09:58:07;0.55;;;0.40;;
42632;SDS011;28261;53.304;-6.284;2023-11-19T10:00:10;1.10;;;0.38;;
42632;SDS011;28261;53.304;-6.284;2023-11-19T10:02:17;0.80;;;0.32;;
42632;SDS011;28261;53.304;-6.284;2023-11-19T10:04:22;2.65;;;0.43;;
42632;SDS011;28261;53.304;-6.284;2023-11-19T10:06:27;1.88;;;0.30;;
42632;SDS011;28261;53.304;-6.284;2023-11-19T10:08:30;0.73;;;0.32;;
42632;SDS011;28261;53.304;-6.284;2023-11-19T10:10:34;4.97;;;0.88;;
42632;SDS011;28261;53.304;-6.284;2023-11-19T10:12:37;1.00;;;0.28;;
42632;SDS011;28261;53.304;-6.284;2023-11-19T10:14:59;2.38;;;0.20;;
42632;SDS011;28261;53.304;-6.284;2023-11-19T10:17:03;1.23;;;0.30;;
42632;SDS011;28261;53.304;-6.284;2023-11-19T10:19:07;3.53;;;0.55;;
42632;SDS011;28261;53.304;-6.284;2023-11-19T10:21:11;1.25;;;0.32;;
42632;SDS011;28261;53.304;-6.284;2023-11-19T10:23:19;2.35;;;0.32;;
42632;SDS011;28261;53.304;-6.284;2023-11-19T10:25:23;0.65;;;0.50;;
42632;SDS011;28261;53.304;-6.284;2023-11-19T10:27:28;1.60;;;0.43;;
42632;SDS011;28261;53.304;-6.284;2023-11-19T10:29:32;1.73;;;0.43;;
42632;SDS011;28261;53.304;-6.284;2023-11-19T10:31:37;1.85;;;0.50;;
42632;SDS011;28261;53.304;-6.284;2023-11-19T10:35:51;1.48;;;0.68;;
42632;SDS011;28261;53.304;-6.284;2023-11-19T10:37:59;1.63;;;0.40;;
42632;SDS011;28261;53.304;-6.284;2023-11-19T10:42:14;0.63;;;0.22;;
42632;SDS011;28261;53.304;-6.284;2023-11-19T10:44:30;1.13;;;0.32;;
42632;SDS011;28261;53.304;-6.284;2023-11-19T10:46:40;1.60;;;0.32;;
42632;SDS011;28261;53.304;-6.284;2023-11-19T10:48:45;0.50;;;0.20;;
42632;SDS011;28261;53.304;-6.284;2023-11-19T10:50:49;1.83;;;0.40;;
42632;SDS011;28261;53.304;-6.284;2023-11-19T10:52:58;1.25;;;0.45;;
42632;SDS011;28261;53.304;-6.284;2023-11-19T10:55:01;0.30;;;0.30;;
42632;SDS011;28261;53.304;-6.284;2023-11-19T10:57:10;3.42;;;0.50;;
42632;SDS011;28261;53.304;-6.284;2023-11-19T10:59:20;1.95;;;0.40;;
42632;SDS011;28261;53.304;-6.284;2023-11-19T11:01:27;1.40;;;0.22;;
42632;SDS011;28261;53.304;-6.284;2023-11-19T11:03:41;1.33;;;0.50;;
42632;SDS011;28261;53.304;-6.284;2023-11-19T11:05:48;0.98;;;0.45;;
42632;SDS011;28261;53.304;-6.284;2023-11-19T11:07:55;0.40;;;0.25;;
42632;SDS011;28261;53.304;-6.284;2023-11-19T11:09:58;0.32;;;0.32;;
42632;SDS011;28261;53.304;-6.284;2023-11-19T11:12:03;1.67;;;0.40;;
42632;SDS011;28261;53.304;-6.284;2023-11-19T11:14:10;1.83;;;0.50;;
42632;SDS011;28261;53.304;-6.284;2023-11-19T11:16:16;0.55;;;0.40;;
42632;SDS011;28261;53.304;-6.284;2023-11-19T11:18:22;1.73;;;0.52;;
42632;SDS011;28261;53.304;-6.284;2023-11-19T11:20:28;0.93;;;0.45;;
42632;SDS011;28261;53.304;-6.284;2023-11-19T11:22:34;0.40;;;0.40;;
42632;SDS011;28261;53.304;-6.284;2023-11-19T11:25:02;1.55;;;0.45;;
42632;SDS011;28261;53.304;-6.284;2023-11-19T11:27:27;0.85;;;0.32;;
42632;SDS011;28261;53.304;-6.284;2023-11-19T11:29:53;0.43;;;0.32;;
42632;SDS011;28261;53.304;-6.284;2023-11-19T11:32:10;2.55;;;0.60;;
42632;SDS011;28261;53.304;-6.284;2023-11-19T11:34:35;1.27;;;0.30;;
42632;SDS011;28261;53.304;-6.284;2023-11-19T11:37:02;0.32;;;0.32;;
42632;SDS011;28261;53.304;-6.284;2023-11-19T11:39:15;0.70;;;0.40;;
42632;SDS011;28261;53.304;-6.284;2023-11-19T11:43:44;2.17;;;0.43;;
42632;SDS011;28261;53.304;-6.284;2023-11-19T11:45:48;0.80;;;0.40;;
42632;SDS011;28261;53.304;-6.284;2023-11-19T11:50:14;1.42;;;0.55;;
42632;SDS011;28261;53.304;-6.284;2023-11-19T11:52:21;0.73;;;0.30;;
42632;SDS011;28261;53.304;-6.284;2023-11-19T11:54:26;0.30;;;0.30;;
42632;SDS011;28261;53.304;-6.284;2023-11-19T11:56:33;0.45;;;0.32;;
42632;SDS011;28261;53.304;-6.284;2023-11-19T11:58:40;0.40;;;0.30;;
42632;SDS011;28261;53.304;-6.284;2023-11-19T12:00:47;0.40;;;0.40;;
42632;SDS011;28261;53.304;-6.284;2023-11-19T12:02:50;0.68;;;0.30;;
42632;SDS011;28261;53.304;-6.284;2023-11-19T12:04:54;0.82;;;0.43;;
42632;SDS011;28261;53.304;-6.284;2023-11-19T12:07:05;0.77;;;0.32;;
42632;SDS011;28261;53.304;-6.284;2023-11-19T12:09:12;0.43;;;0.43;;
42632;SDS011;28261;53.304;-6.284;2023-11-19T12:11:16;1.42;;;0.50;;
42632;SDS011;28261;53.304;-6.284;2023-11-19T12:13:21;0.55;;;0.32;;
42632;SDS011;28261;53.304;-6.284;2023-11-19T12:15:24;0.60;;;0.60;;
42632;SDS011;28261;53.304;-6.284;2023-11-19T12:19:52;0.40;;;0.40;;
42632;SDS011;28261;53.304;-6.284;2023-11-19T12:21:57;0.90;;;0.40;;
42632;SDS011;28261;53.304;-6.284;2023-11-19T12:24:04;2.05;;;0.55;;
42632;SDS011;28261;53.304;-6.284;2023-11-19T12:26:16;0.82;;;0.40;;
42632;SDS011;28261;53.304;-6.284;2023-11-19T12:28:33;2.83;;;0.57;;
42632;SDS011;28261;53.304;-6.284;2023-11-19T12:30:37;0.35;;;0.30;;
42632;SDS011;28261;53.304;-6.284;2023-11-19T12:32:41;0.77;;;0.43;;
42632;SDS011;28261;53.304;-6.284;2023-11-19T12:36:49;0.85;;;0.43;;
42632;SDS011;28261;53.304;-6.284;2023-11-19T12:38:52;0.93;;;0.68;;
42632;SDS011;28261;53.304;-6.284;2023-11-19T12:41:03;1.15;;;0.70;;
42632;SDS011;28261;53.304;-6.284;2023-11-19T12:43:08;0.47;;;0.40;;
42632;SDS011;28261;53.304;-6.284;2023-11-19T12:45:12;3.95;;;0.70;;
42632;SDS011;28261;53.304;-6.284;2023-11-19T12:47:16;2.08;;;0.30;;
42632;SDS011;28261;53.304;-6.284;2023-11-19T12:49:21;1.13;;;0.50;;
42632;SDS011;28261;53.304;-6.284;2023-11-19T12:51:30;1.98;;;0.60;;
42632;SDS011;28261;53.304;-6.284;2023-11-19T12:53:46;1.52;;;0.52;;
42632;SDS011;28261;53.304;-6.284;2023-11-19T12:55:52;3.45;;;0.65;;